Terminal Aerodrome Forecast
Issued by NWS Bismarck, ND

Home | Current Version | Previous Version | Text Only | Print | Product List | Glossary Off
Versions: 1 2 3 4 5 6 7 8 9 10 11 12 13 14 15 16 17 18 19 20

000
FTUS43 KBIS 291728
TAFBIS
TAF
KBIS 291728Z 2918/3018 30006KT P6SM SCT100
     FM292200 01007KT P6SM BKN080
     FM300300 08007KT P6SM SCT080
     FM301200 13007KT P6SM BKN070 OVC100=

USA.gov is the U.S. government's official web portal to all federal, state and local government web resources and services.